Weather at Madeira International Airport Cristiano Ronaldo

Public forecast

Using degrees Celsius for public forecast. Weather courtesy of forecast.io.

Current aviation weather report (METAR) for Madeira International Airport Cristiano Ronaldo

2024/04/22 16:30 (retrieved 12 minutes ago)

LPMA 221630Z 04012KT 9999 SCT015 20/14 Q1016

Aviation forecast (TAF) for Madeira International Airport Cristiano Ronaldo

2024/04/22 12:18 (retrieved 4 hours ago)

TAF LPMA 221100Z 2212/2312 04012KT 9999 SCT015 SCT030 BECMG 2308/2310 SCT015